Time;durP1;ratioP1;P1;durP2;ratioP2;P2;SDS_P1;SDS_P2;PMS_P1;PMS_P2;Temp;Humidity;BMP_temperature;BMP_pressure;BME280_temperature;BME280_humidity;BME280_pressure;Samples;Min_cycle;Max_cycle;Signal;HPM_P1;HPM_P2
2021/11/18 00:00:39;;;;;;;;;;;15.70;99.90;;;;;;5076085;28;854;-56
2021/11/18 00:03:07;;;;;;;;;;;15.60;99.90;;;;;;5075321;28;1013;-56
2021/11/18 00:05:33;;;;;;;;;;;15.60;99.90;;;;;;5057922;28;1359;-55
2021/11/18 00:08:00;;;;;;;;;;;15.60;99.90;;;;;;5075903;28;917;-56
2021/11/18 00:10:28;;;;;;;;;;;15.60;99.90;;;;;;5076105;28;876;-56
2021/11/18 00:12:55;;;;;;;;;;;15.60;99.90;;;;;;5076411;28;1905;-56
2021/11/18 00:15:25;;;;;;;;;;;15.50;99.90;;;;;;5075505;28;1138;-56
2021/11/18 00:17:59;;;;;;;;;;;15.50;99.90;;;;;;5075534;28;903;-55
2021/11/18 00:20:29;;;;;;;;;;;15.50;99.90;;;;;;5075271;28;1106;-55
2021/11/18 00:22:55;;;;;;;;;;;15.50;99.90;;;;;;5075896;28;975;-56
2021/11/18 00:25:21;;;;;;;;;;;15.40;99.90;;;;;;5075682;28;1272;-56
2021/11/18 00:27:47;;;;;;;;;;;15.40;99.90;;;;;;5075350;28;1084;-56
2021/11/18 00:30:14;;;;;;;;;;;15.40;99.90;;;;;;5075122;28;1047;-56
2021/11/18 00:32:40;;;;;;;;;;;15.40;99.90;;;;;;5075699;28;1028;-56
2021/11/18 00:35:07;;;;;;;;;;;15.40;99.90;;;;;;5075406;28;1966;-56
2021/11/18 00:37:33;;;;;;;;;;;15.30;99.90;;;;;;5075785;28;763;-56
2021/11/18 00:39:59;;;;;;;;;;;15.30;99.90;;;;;;5075786;28;853;-56
2021/11/18 00:42:25;;;;;;;;;;;15.30;99.90;;;;;;5075738;28;816;-56
2021/11/18 00:44:54;;;;;;;;;;;15.30;99.90;;;;;;5074429;28;1409;-56
2021/11/18 00:47:20;;;;;;;;;;;15.30;99.90;;;;;;5055371;28;1072;-56
2021/11/18 00:49:46;;;;;;;;;;;15.30;99.90;;;;;;5075297;28;963;-56
2021/11/18 00:52:12;;;;;;;;;;;15.30;99.90;;;;;;5075690;28;784;-56
2021/11/18 00:54:38;;;;;;;;;;;15.20;99.90;;;;;;5075523;28;1959;-56
2021/11/18 00:57:05;;;;;;;;;;;15.20;99.90;;;;;;5075560;28;840;-56
2021/11/18 00:59:31;;;;;;;;;;;15.20;99.90;;;;;;5074907;28;1506;-56
2021/11/18 01:01:57;;;;;;;;;;;15.20;99.90;;;;;;5079405;28;806;-56
2021/11/18 01:04:24;;;;;;;;;;;15.20;99.90;;;;;;5079797;28;868;-56
2021/11/18 01:06:50;;;;;;;;;;;15.10;99.90;;;;;;5079515;28;1042;-56
2021/11/18 01:09:16;;;;;;;;;;;15.10;99.90;;;;;;5079886;28;1242;-56
2021/11/18 01:11:42;;;;;;;;;;;15.10;99.90;;;;;;5079421;28;823;-56
2021/11/18 01:14:09;;;;;;;;;;;15.10;99.90;;;;;;5061585;28;1910;-56
2021/11/18 01:16:37;;;;;;;;;;;15.10;99.90;;;;;;5079133;28;852;-56
2021/11/18 01:19:05;;;;;;;;;;;15.10;99.90;;;;;;5079506;28;795;-56
2021/11/18 01:21:31;;;;;;;;;;;15.00;99.90;;;;;;5079210;28;762;-56
2021/11/18 01:23:57;;;;;;;;;;;15.00;99.90;;;;;;5079115;28;957;-56
2021/11/18 01:26:23;;;;;;;;;;;15.00;99.90;;;;;;5061978;28;900;-56
2021/11/18 01:28:49;;;;;;;;;;;15.00;99.90;;;;;;5078043;28;908;-55
2021/11/18 01:31:15;;;;;;;;;;;15.00;99.90;;;;;;5078886;28;857;-56
2021/11/18 01:33:42;;;;;;;;;;;14.90;99.90;;;;;;5078897;28;1914;-56
2021/11/18 01:36:08;;;;;;;;;;;14.90;99.90;;;;;;5078269;28;871;-56
2021/11/18 01:38:35;;;;;;;;;;;14.90;99.90;;;;;;5077416;28;1186;-56
2021/11/18 01:41:05;;;;;;;;;;;14.90;99.90;;;;;;5060923;28;925;-56
2021/11/18 01:43:34;;;;;;;;;;;14.90;99.90;;;;;;5078129;28;998;-56
2021/11/18 01:46:00;;;;;;;;;;;14.90;99.90;;;;;;5078633;28;921;-56
2021/11/18 01:48:26;;;;;;;;;;;14.90;99.90;;;;;;5078756;28;836;-56
2021/11/18 01:50:53;;;;;;;;;;;14.90;99.90;;;;;;5078976;28;785;-56
2021/11/18 01:53:21;;;;;;;;;;;14.80;99.90;;;;;;5078556;28;1910;-55
2021/11/18 01:55:47;;;;;;;;;;;14.80;99.90;;;;;;5078512;28;884;-57
2021/11/18 01:58:13;;;;;;;;;;;14.80;99.90;;;;;;5078435;28;891;-56
2021/11/18 02:00:47;;;;;;;;;;;14.80;99.90;;;;;;5078627;28;789;-56
2021/11/18 02:03:13;;;;;;;;;;;14.80;99.90;;;;;;5078738;28;788;-56
2021/11/18 02:05:46;;;;;;;;;;;14.80;99.90;;;;;;5078422;28;755;-56
2021/11/18 02:08:12;;;;;;;;;;;14.70;99.90;;;;;;5078701;28;750;-56
2021/11/18 02:10:40;;;;;;;;;;;14.70;99.90;;;;;;5078527;28;826;-55
2021/11/18 02:13:08;;;;;;;;;;;14.70;99.90;;;;;;5077979;28;1980;-56
2021/11/18 02:15:34;;;;;;;;;;;14.70;99.90;;;;;;5060626;28;850;-55
2021/11/18 02:18:01;;;;;;;;;;;14.70;99.90;;;;;;5077771;28;1144;-56
2021/11/18 02:20:35;;;;;;;;;;;14.70;99.90;;;;;;5078131;28;858;-56
2021/11/18 02:23:08;;;;;;;;;;;14.70;99.90;;;;;;5060561;28;1692;-56
2021/11/18 02:25:34;;;;;;;;;;;14.60;99.90;;;;;;5077936;28;1098;-56
2021/11/18 02:28:00;;;;;;;;;;;14.60;99.90;;;;;;5078108;28;900;-56
2021/11/18 02:30:27;;;;;;;;;;;14.60;99.90;;;;;;5078251;28;901;-56
2021/11/18 02:32:54;;;;;;;;;;;14.60;99.90;;;;;;5077760;28;860;-56
2021/11/18 02:35:26;;;;;;;;;;;14.60;99.90;;;;;;5077371;28;1905;-55
2021/11/18 02:37:53;;;;;;;;;;;14.60;99.90;;;;;;5077767;28;872;-55
2021/11/18 02:40:20;;;;;;;;;;;14.60;99.90;;;;;;5077420;28;893;-55
2021/11/18 02:42:46;;;;;;;;;;;14.50;99.90;;;;;;5077325;28;931;-56
2021/11/18 02:45:13;;;;;;;;;;;14.50;99.90;;;;;;5077572;28;746;-55
2021/11/18 02:47:39;;;;;;;;;;;14.50;99.90;;;;;;5077514;28;884;-56
2021/11/18 02:50:07;;;;;;;;;;;14.50;99.90;;;;;;5077873;28;1047;-56
2021/11/18 02:52:34;;;;;;;;;;;14.50;99.90;;;;;;5077820;28;793;-55
2021/11/18 02:55:08;;;;;;;;;;;14.50;99.90;;;;;;5076967;28;1898;-56
2021/11/18 02:57:34;;;;;;;;;;;14.50;99.90;;;;;;5059573;28;872;-55
2021/11/18 03:00:00;;;;;;;;;;;14.40;99.90;;;;;;5077223;28;853;-55
2021/11/18 03:02:27;;;;;;;;;;;14.50;99.90;;;;;;5077218;28;783;-55
2021/11/18 03:04:53;;;;;;;;;;;14.40;99.90;;;;;;5076729;28;1013;-56
2021/11/18 03:07:19;;;;;;;;;;;14.40;99.90;;;;;;5077219;28;844;-56
2021/11/18 03:09:45;;;;;;;;;;;14.40;99.90;;;;;;5059649;28;940;-56
2021/11/18 03:12:11;;;;;;;;;;;14.40;99.90;;;;;;5077381;28;883;-56
2021/11/18 03:14:37;;;;;;;;;;;14.40;99.90;;;;;;5076953;28;1910;-56
2021/11/18 03:17:03;;;;;;;;;;;14.40;99.90;;;;;;5076896;28;835;-56
2021/11/18 03:19:29;;;;;;;;;;;14.40;99.90;;;;;;5076932;28;889;-56
2021/11/18 03:21:55;;;;;;;;;;;14.40;99.90;;;;;;5076372;28;896;-56
2021/11/18 03:24:23;;;;;;;;;;;14.40;99.90;;;;;;5076065;28;1120;-56
2021/11/18 03:26:49;;;;;;;;;;;14.40;99.90;;;;;;5076709;28;834;-56
2021/11/18 03:29:15;;;;;;;;;;;14.40;99.90;;;;;;5076682;28;852;-56
2021/11/18 03:31:41;;;;;;;;;;;14.40;99.90;;;;;;5071292;28;807;-56
2021/11/18 03:34:09;;;;;;;;;;;14.40;99.90;;;;;;5076784;28;1969;-56
2021/11/18 03:36:37;;;;;;;;;;;14.30;99.90;;;;;;5053904;28;1160;-56
2021/11/18 03:39:05;;;;;;;;;;;14.30;99.90;;;;;;5068128;28;1217;-56
2021/11/18 03:41:32;;;;;;;;;;;14.30;99.90;;;;;;5076508;28;893;-56
2021/11/18 03:44:00;;;;;;;;;;;14.30;99.90;;;;;;5052195;28;1242;-56
2021/11/18 03:46:29;;;;;;;;;;;14.30;99.90;;;;;;5070583;28;897;-56
2021/11/18 03:48:55;;;;;;;;;;;14.30;99.90;;;;;;5023049;28;995;-56
2021/11/18 03:51:22;;;;;;;;;;;14.30;99.90;;;;;;5076589;28;848;-56
2021/11/18 03:53:48;;;;;;;;;;;14.30;99.90;;;;;;5076358;28;1902;-56
2021/11/18 03:56:16;;;;;;;;;;;14.30;99.90;;;;;;5069653;28;932;-56
2021/11/18 03:58:42;;;;;;;;;;;14.20;99.90;;;;;;5068906;28;968;-56
2021/11/18 04:01:08;;;;;;;;;;;14.20;99.90;;;;;;5076039;28;847;-56
2021/11/18 04:03:35;;;;;;;;;;;14.20;99.90;;;;;;5075670;28;960;-56
2021/11/18 04:06:02;;;;;;;;;;;14.20;99.90;;;;;;5075750;28;1062;-56
2021/11/18 04:08:29;;;;;;;;;;;14.20;99.90;;;;;;5075630;28;1148;-56
2021/11/18 04:10:55;;;;;;;;;;;14.20;99.90;;;;;;5076020;28;1641;-56
2021/11/18 04:13:21;;;;;;;;;;;14.20;99.90;;;;;;5076128;28;1981;-56
2021/11/18 04:15:49;;;;;;;;;;;14.20;99.90;;;;;;5076007;28;837;-56
2021/11/18 04:18:19;;;;;;;;;;;14.10;99.90;;;;;;5075760;28;899;-56
2021/11/18 04:20:49;;;;;;;;;;;14.10;99.90;;;;;;5058286;28;1424;-56
2021/11/18 04:23:15;;;;;;;;;;;14.10;99.90;;;;;;5075978;28;762;-56
2021/11/18 04:25:43;;;;;;;;;;;14.10;99.90;;;;;;5074469;28;1171;-56
2021/11/18 04:28:10;;;;;;;;;;;14.10;99.90;;;;;;5074368;28;757;-56
2021/11/18 04:30:43;;;;;;;;;;;14.10;99.90;;;;;;5074329;28;899;-56
2021/11/18 04:33:08;;;;;;;;;;;14.10;99.90;;;;;;5074834;28;793;-56
2021/11/18 04:35:35;;;;;;;;;;;14.10;99.90;;;;;;5075392;28;1969;-56
2021/11/18 04:38:01;;;;;;;;;;;14.10;99.90;;;;;;5057925;28;936;-56
2021/11/18 04:40:31;;;;;;;;;;;14.10;99.90;;;;;;5075780;28;821;-56
2021/11/18 04:42:57;;;;;;;;;;;14.10;99.90;;;;;;5075265;28;965;-56
2021/11/18 04:45:23;;;;;;;;;;;14.10;99.90;;;;;;5075915;28;1142;-56
2021/11/18 04:47:50;;;;;;;;;;;14.00;99.90;;;;;;5075585;28;860;-56
2021/11/18 04:50:17;;;;;;;;;;;14.00;99.90;;;;;;5075725;28;868;-56
2021/11/18 04:52:43;;;;;;;;;;;14.00;99.90;;;;;;5075198;28;833;-56
2021/11/18 04:55:10;;;;;;;;;;;14.00;99.90;;;;;;5040149;28;1972;-56
2021/11/18 04:57:36;;;;;;;;;;;14.00;99.90;;;;;;5076137;28;830;-56
2021/11/18 05:00:05;;;;;;;;;;;14.00;99.90;;;;;;5075339;28;810;-56
2021/11/18 05:02:33;;;;;;;;;;;14.00;99.90;;;;;;5075551;28;1133;-56
2021/11/18 05:05:00;;;;;;;;;;;14.00;99.90;;;;;;5071694;28;1032;-56
2021/11/18 05:07:26;;;;;;;;;;;14.00;99.90;;;;;;5072104;28;869;-56
2021/11/18 05:09:52;;;;;;;;;;;13.90;99.90;;;;;;5071924;28;805;-56
2021/11/18 05:12:18;;;;;;;;;;;13.90;99.90;;;;;;5075724;28;871;-56
2021/11/18 05:14:46;;;;;;;;;;;13.90;99.90;;;;;;5074741;28;1910;-56
2021/11/18 05:17:12;;;;;;;;;;;13.90;99.90;;;;;;5075280;28;775;-56
2021/11/18 05:19:38;;;;;;;;;;;13.90;99.90;;;;;;5074917;28;868;-56
2021/11/18 05:22:04;;;;;;;;;;;13.90;99.90;;;;;;5075370;28;919;-56
2021/11/18 05:24:30;;;;;;;;;;;13.90;99.90;;;;;;5075303;28;1314;-56
2021/11/18 05:26:56;;;;;;;;;;;13.90;99.90;;;;;;5074998;28;1074;-56
2021/11/18 05:29:22;;;;;;;;;;;13.90;99.90;;;;;;5075414;28;858;-56
2021/11/18 05:31:48;;;;;;;;;;;13.90;99.90;;;;;;5072753;28;1321;-56
2021/11/18 05:34:14;;;;;;;;;;;13.90;99.90;;;;;;5074534;28;1913;-56
2021/11/18 05:36:40;;;;;;;;;;;13.80;99.90;;;;;;5075492;28;857;-56
2021/11/18 05:39:06;;;;;;;;;;;13.80;99.90;;;;;;5075471;28;785;-56
2021/11/18 05:41:32;;;;;;;;;;;13.80;99.90;;;;;;5075185;28;829;-56
2021/11/18 05:44:02;;;;;;;;;;;13.80;99.90;;;;;;5074822;28;910;-56
2021/11/18 05:46:30;;;;;;;;;;;13.80;99.90;;;;;;5078976;28;839;-56
2021/11/18 05:48:56;;;;;;;;;;;13.80;99.90;;;;;;5078539;28;880;-56
2021/11/18 05:51:22;;;;;;;;;;;13.80;99.90;;;;;;5077713;28;1116;-56
2021/11/18 05:53:48;;;;;;;;;;;13.80;99.90;;;;;;5078539;28;1902;-56
2021/11/18 05:56:15;;;;;;;;;;;13.80;99.90;;;;;;5078090;28;970;-55
2021/11/18 05:58:41;;;;;;;;;;;13.80;99.90;;;;;;5078455;28;802;-55
2021/11/18 06:01:08;;;;;;;;;;;13.80;99.90;;;;;;5060879;28;1043;-55
2021/11/18 06:03:35;;;;;;;;;;;13.80;99.90;;;;;;5078414;28;758;-55
2021/11/18 06:06:01;;;;;;;;;;;13.80;99.90;;;;;;5078039;28;951;-56
2021/11/18 06:08:27;;;;;;;;;;;13.80;99.90;;;;;;5078418;28;789;-55
2021/11/18 06:10:53;;;;;;;;;;;13.90;99.90;;;;;;5078324;28;1024;-55
2021/11/18 06:13:20;;;;;;;;;;;13.90;99.90;;;;;;5078223;28;909;-55
2021/11/18 06:15:46;;;;;;;;;;;13.90;99.90;;;;;;5077870;28;1910;-55
2021/11/18 06:18:12;;;;;;;;;;;14.00;99.90;;;;;;5078157;28;887;-55
2021/11/18 06:20:39;;;;;;;;;;;14.00;99.90;;;;;;5078180;28;817;-55
2021/11/18 06:23:05;;;;;;;;;;;14.00;99.90;;;;;;5078184;28;856;-55
2021/11/18 06:25:32;;;;;;;;;;;14.10;99.90;;;;;;5060006;28;1061;-56
2021/11/18 06:27:58;;;;;;;;;;;14.10;99.90;;;;;;5077235;28;1390;-56
2021/11/18 06:30:28;;;;;;;;;;;14.20;99.90;;;;;;5077930;28;851;-55
2021/11/18 06:32:55;;;;;;;;;;;14.20;99.90;;;;;;5077959;28;741;-56
2021/11/18 06:35:21;;;;;;;;;;;14.20;99.90;;;;;;5077326;28;1973;-56
2021/11/18 06:37:48;;;;;;;;;;;14.30;99.90;;;;;;5074894;28;1030;-55
2021/11/18 06:40:15;;;;;;;;;;;14.30;99.90;;;;;;5060250;28;957;-55
2021/11/18 06:42:42;;;;;;;;;;;14.30;99.90;;;;;;5077264;28;1296;-55
2021/11/18 06:45:10;;;;;;;;;;;14.30;99.90;;;;;;5075955;28;1549;-55
2021/11/18 06:47:36;;;;;;;;;;;14.40;99.90;;;;;;5077766;28;785;-55
2021/11/18 06:50:03;;;;;;;;;;;14.40;99.90;;;;;;5077724;28;842;-55
2021/11/18 06:52:29;;;;;;;;;;;14.40;99.90;;;;;;5077852;28;797;-55
2021/11/18 06:54:55;;;;;;;;;;;14.40;99.90;;;;;;5072813;28;1974;-56
2021/11/18 06:57:22;;;;;;;;;;;14.40;99.90;;;;;;5075590;28;1138;-56
2021/11/18 06:59:48;;;;;;;;;;;14.40;99.90;;;;;;5077101;28;917;-56
2021/11/18 07:02:15;;;;;;;;;;;14.40;99.90;;;;;;5074590;28;1091;-56
2021/11/18 07:04:43;;;;;;;;;;;14.40;99.90;;;;;;5077271;28;809;-56
2021/11/18 07:07:10;;;;;;;;;;;14.40;99.90;;;;;;5059393;28;1118;-55
2021/11/18 07:09:37;;;;;;;;;;;14.40;99.90;;;;;;5076520;28;1063;-56
2021/11/18 07:12:05;;;;;;;;;;;14.60;99.90;;;;;;5075568;28;1182;-56
2021/11/18 07:14:32;;;;;;;;;;;14.70;99.90;;;;;;5058908;28;1898;-55
2021/11/18 07:16:59;;;;;;;;;;;14.90;99.90;;;;;;5075355;28;1523;-56
2021/11/18 07:19:25;;;;;;;;;;;15.10;99.90;;;;;;5076540;28;821;-56
2021/11/18 07:21:51;;;;;;;;;;;15.30;99.90;;;;;;5077214;28;873;-56
2021/11/18 07:24:17;;;;;;;;;;;15.40;99.90;;;;;;5076701;28;1164;-56
2021/11/18 07:26:43;;;;;;;;;;;15.50;99.90;;;;;;5076426;28;884;-55
2021/11/18 07:29:10;;;;;;;;;;;15.60;99.90;;;;;;5076316;28;878;-55
2021/11/18 07:31:36;;;;;;;;;;;15.70;99.90;;;;;;5076648;28;915;-55
2021/11/18 07:34:04;;;;;;;;;;;15.70;99.90;;;;;;5076688;28;1967;-55
2021/11/18 07:36:29;;;;;;;;;;;15.80;99.90;;;;;;5076343;28;862;-55
2021/11/18 07:38:55;;;;;;;;;;;15.90;99.90;;;;;;5076898;28;996;-56
2021/11/18 07:41:21;;;;;;;;;;;15.90;99.90;;;;;;5074944;28;1247;-56
2021/11/18 07:43:47;;;;;;;;;;;15.90;99.90;;;;;;5059136;28;746;-56
2021/11/18 07:46:15;;;;;;;;;;;15.90;99.90;;;;;;5076212;28;901;-56
2021/11/18 07:48:42;;;;;;;;;;;16.00;99.90;;;;;;5075614;28;921;-55
2021/11/18 07:51:11;;;;;;;;;;;16.00;99.90;;;;;;5058663;28;957;-55
2021/11/18 07:53:37;;;;;;;;;;;16.00;99.90;;;;;;5076021;28;876;-56
2021/11/18 07:56:03;;;;;;;;;;;16.00;99.90;;;;;;5076311;28;1898;-56
2021/11/18 07:58:29;;;;;;;;;;;16.00;99.90;;;;;;5075955;28;1389;-55
2021/11/18 08:00:55;;;;;;;;;;;16.00;99.90;;;;;;5075024;28;1622;-55
2021/11/18 08:03:22;;;;;;;;;;;16.10;99.90;;;;;;5080807;28;1846;-56
2021/11/18 08:05:48;;;;;;;;;;;16.10;99.90;;;;;;5069664;28;1656;-56
2021/11/18 08:08:14;;;;;;;;;;;16.10;99.90;;;;;;5069536;28;898;-56
2021/11/18 08:10:40;;;;;;;;;;;16.20;99.90;;;;;;5075848;28;1762;-56
2021/11/18 08:13:08;;;;;;;;;;;16.20;99.90;;;;;;5075911;28;895;-56
2021/11/18 08:15:34;;;;;;;;;;;16.30;99.90;;;;;;5075758;28;1922;-56
2021/11/18 08:18:00;;;;;;;;;;;16.30;99.90;;;;;;5058234;28;1742;-56
2021/11/18 08:20:26;;;;;;;;;;;16.30;99.90;;;;;;5075909;28;764;-56
2021/11/18 08:22:52;;;;;;;;;;;16.40;99.90;;;;;;5075372;28;950;-56
2021/11/18 08:25:21;;;;;;;;;;;16.40;99.90;;;;;;5075719;28;1093;-56
2021/11/18 08:27:46;;;;;;;;;;;16.50;99.90;;;;;;5076156;28;796;-56
2021/11/18 08:30:17;;;;;;;;;;;16.50;99.90;;;;;;5075912;28;877;-57
2021/11/18 08:32:45;;;;;;;;;;;16.50;99.90;;;;;;5074937;28;1008;-56
2021/11/18 08:35:11;;;;;;;;;;;16.50;99.90;;;;;;5075545;28;1910;-56
2021/11/18 08:37:38;;;;;;;;;;;16.60;99.90;;;;;;5075018;28;987;-56
2021/11/18 08:40:05;;;;;;;;;;;16.60;99.90;;;;;;5075283;28;909;-55
2021/11/18 08:42:31;;;;;;;;;;;16.60;99.90;;;;;;5075235;28;1032;-56
2021/11/18 08:44:57;;;;;;;;;;;16.70;99.90;;;;;;5075533;28;900;-56
2021/11/18 08:47:24;;;;;;;;;;;16.70;99.90;;;;;;5075067;28;1621;-56
2021/11/18 08:49:50;;;;;;;;;;;16.70;99.90;;;;;;5075826;28;794;-56
2021/11/18 08:52:18;;;;;;;;;;;16.80;99.90;;;;;;5072089;28;1178;-56
2021/11/18 08:54:46;;;;;;;;;;;16.80;99.90;;;;;;5075258;28;1914;-56
2021/11/18 08:57:12;;;;;;;;;;;16.80;99.90;;;;;;5070694;28;1628;-56
2021/11/18 08:59:39;;;;;;;;;;;16.90;99.90;;;;;;5075054;28;874;-56
2021/11/18 09:02:07;;;;;;;;;;;16.90;99.90;;;;;;5073894;28;1287;-56
2021/11/18 09:04:33;;;;;;;;;;;17.00;99.90;;;;;;5075400;28;833;-56
2021/11/18 09:06:59;;;;;;;;;;;17.00;99.90;;;;;;5054941;28;1145;-56
2021/11/18 09:09:26;;;;;;;;;;;17.00;99.90;;;;;;5073244;28;1444;-56
2021/11/18 09:11:53;;;;;;;;;;;17.10;99.90;;;;;;5057670;28;932;-56
2021/11/18 09:14:20;;;;;;;;;;;17.10;99.90;;;;;;5074384;28;1918;-56
2021/11/18 09:16:46;;;;;;;;;;;17.20;99.90;;;;;;5075108;28;884;-56
2021/11/18 09:19:14;;;;;;;;;;;17.20;99.90;;;;;;5076149;28;880;-56
2021/11/18 09:21:40;;;;;;;;;;;17.20;99.90;;;;;;5077478;28;1237;-55
2021/11/18 09:24:09;;;;;;;;;;;17.20;99.90;;;;;;5076400;28;1215;-56
2021/11/18 09:26:36;;;;;;;;;;;17.40;99.90;;;;;;5059714;28;1535;-56
2021/11/18 09:29:03;;;;;;;;;;;17.50;99.90;;;;;;5060704;28;1266;-56
2021/11/18 09:31:29;;;;;;;;;;;17.60;99.90;;;;;;5078779;28;1027;-56
2021/11/18 09:33:56;;;;;;;;;;;17.60;99.90;;;;;;5078666;28;865;-56
2021/11/18 09:36:23;;;;;;;;;;;17.60;99.90;;;;;;5078279;28;1901;-56
2021/11/18 09:38:50;;;;;;;;;;;17.50;99.90;;;;;;5077710;28;1023;-56
2021/11/18 09:41:25;;;;;;;;;;;17.40;99.90;;;;;;5077196;28;895;-56
2021/11/18 09:43:54;;;;;;;;;;;17.40;99.90;;;;;;5075719;28;1219;-56
2021/11/18 09:46:46;;;;;;;;;;;17.30;99.90;;;;;;5077353;28;1022;-55
2021/11/18 09:49:24;;;;;;;;;;;17.30;99.90;;;;;;5061315;28;1160;-55
2021/11/18 09:51:56;;;;;;;;;;;17.20;99.90;;;;;;5078244;28;1126;-56
2021/11/18 09:54:25;;;;;;;;;;;17.20;99.90;;;;;;5078485;28;1913;-56
2021/11/18 09:57:10;;;;;;;;;;;17.20;99.90;;;;;;5078506;28;821;-56
2021/11/18 09:59:53;;;;;;;;;;;17.10;99.90;;;;;;5078623;28;881;-56
2021/11/18 10:02:38;;;;;;;;;;;17.10;99.90;;;;;;5060454;28;935;-56
2021/11/18 10:05:11;;;;;;;;;;;17.10;99.90;;;;;;5078019;28;821;-56
2021/11/18 10:07:43;;;;;;;;;;;17.10;99.90;;;;;;5078484;28;836;-55
2021/11/18 10:10:45;;;;;;;;;;;17.00;99.90;;;;;;5035221;28;1652;-56
2021/11/18 10:13:20;;;;;;;;;;;17.00;99.90;;;;;;5036677;28;1108;-56
2021/11/18 10:15:49;;;;;;;;;;;16.90;99.90;;;;;;5067762;28;1985;-55
2021/11/18 10:18:15;;;;;;;;;;;16.90;99.90;;;;;;5078301;28;778;-55
2021/11/18 10:20:43;;;;;;;;;;;16.80;99.90;;;;;;5078134;28;837;-55
2021/11/18 10:23:10;;;;;;;;;;;16.80;99.90;;;;;;5077643;28;958;-55
2021/11/18 10:25:42;;;;;;;;;;;16.80;99.90;;;;;;5077173;28;1322;-55
2021/11/18 10:28:21;;;;;;;;;;;16.80;99.90;;;;;;5078231;28;871;-56
2021/11/18 10:31:03;;;;;;;;;;;16.70;99.90;;;;;;5075916;28;957;-55
2021/11/18 10:33:37;;;;;;;;;;;16.70;99.90;;;;;;5077136;28;889;-56
2021/11/18 10:36:11;;;;;;;;;;;16.60;99.90;;;;;;5077718;28;1948;-56
2021/11/18 10:38:40;;;;;;;;;;;16.60;99.90;;;;;;5077718;28;904;-55
2021/11/18 10:41:24;;;;;;;;;;;16.60;99.90;;;;;;5077181;28;937;-55
2021/11/18 10:44:02;;;;;;;;;;;16.60;99.90;;;;;;5077459;28;942;-55
2021/11/18 10:46:33;;;;;;;;;;;16.60;99.90;;;;;;5077904;28;781;-56
2021/11/18 10:49:02;;;;;;;;;;;16.60;99.90;;;;;;5077750;28;896;-55
2021/11/18 10:51:31;;;;;;;;;;;16.50;99.90;;;;;;5077184;28;834;-55
2021/11/18 10:53:58;;;;;;;;;;;16.50;99.90;;;;;;5076730;28;993;-55
2021/11/18 10:56:30;;;;;;;;;;;16.50;99.90;;;;;;5077604;28;1914;-55
2021/11/18 10:59:06;;;;;;;;;;;16.50;99.90;;;;;;5077791;28;944;-55
2021/11/18 11:01:35;;;;;;;;;;;16.50;99.90;;;;;;5076923;28;858;-55
2021/11/18 11:04:02;;;;;;;;;;;16.60;99.90;;;;;;5077137;28;832;-55
2021/11/18 11:06:29;;;;;;;;;;;16.60;99.90;;;;;;5077176;28;853;-55
2021/11/18 11:08:58;;;;;;;;;;;16.70;99.90;;;;;;5077113;28;1725;-56
2021/11/18 11:11:43;;;;;;;;;;;16.70;99.90;;;;;;5076380;28;846;-55
2021/11/18 11:14:19;;;;;;;;;;;16.80;99.90;;;;;;5076435;28;1123;-55
2021/11/18 11:17:00;;;;;;;;;;;16.90;99.90;;;;;;5073250;28;1890;-56
2021/11/18 11:19:46;;;;;;;;;;;16.90;99.90;;;;;;5076889;28;816;-56
2021/11/18 11:22:16;;;;;;;;;;;17.00;99.90;;;;;;5077135;28;765;-56
2021/11/18 11:24:56;;;;;;;;;;;17.00;99.90;;;;;;5076794;28;1282;-56
2021/11/18 11:27:43;;;;;;;;;;;17.00;99.90;;;;;;5076897;28;824;-55
2021/11/18 11:30:15;;;;;;;;;;;17.00;99.90;;;;;;5057771;28;861;-55
2021/11/18 11:32:44;;;;;;;;;;;16.90;99.90;;;;;;5075882;28;925;-56
2021/11/18 11:35:19;;;;;;;;;;;16.90;99.90;;;;;;5076706;28;1906;-56
2021/11/18 11:38:04;;;;;;;;;;;16.90;99.90;;;;;;5076738;28;848;-55
2021/11/18 11:40:33;;;;;;;;;;;16.80;99.90;;;;;;5076535;28;907;-56
2021/11/18 11:43:07;;;;;;;;;;;16.80;99.90;;;;;;5057763;28;989;-56
2021/11/18 11:45:56;;;;;;;;;;;16.80;99.90;;;;;;5075660;28;1250;-56
2021/11/18 11:48:28;;;;;;;;;;;16.80;99.90;;;;;;5072319;28;791;-55
2021/11/18 11:51:12;;;;;;;;;;;16.70;99.90;;;;;;5072458;28;821;-56
2021/11/18 11:53:58;;;;;;;;;;;16.70;99.90;;;;;;5076564;28;858;-56
2021/11/18 11:56:28;;;;;;;;;;;16.70;99.90;;;;;;5075395;28;2024;-56
2021/11/18 11:58:56;;;;;;;;;;;16.60;99.90;;;;;;5076201;28;825;-55
2021/11/18 12:01:30;;;;;;;;;;;16.60;99.90;;;;;;5075687;28;845;-56
2021/11/18 12:03:56;;;;;;;;;;;16.60;99.90;;;;;;5075967;28;847;-55
2021/11/18 12:06:25;;;;;;;;;;;16.60;99.90;;;;;;5076184;28;851;-55
2021/11/18 12:09:07;;;;;;;;;;;16.60;99.90;;;;;;5053222;28;1635;-55
2021/11/18 12:11:54;;;;;;;;;;;16.60;99.90;;;;;;5075609;28;896;-56
2021/11/18 12:14:29;;;;;;;;;;;16.50;99.90;;;;;;5074871;28;1342;-56
2021/11/18 12:16:55;;;;;;;;;;;16.50;99.90;;;;;;5075140;28;1981;-56
2021/11/18 12:19:40;;;;;;;;;;;16.50;99.90;;;;;;5075427;28;873;-56
2021/11/18 12:22:24;;;;;;;;;;;16.50;99.90;;;;;;5075612;28;924;-56
2021/11/18 12:25:09;;;;;;;;;;;16.50;99.90;;;;;;5057837;28;1175;-56
2021/11/18 12:27:38;;;;;;;;;;;16.40;99.90;;;;;;5058376;28;1378;-55
2021/11/18 12:30:15;;;;;;;;;;;16.40;99.90;;;;;;5073129;28;1378;-55
2021/11/18 12:32:52;;;;;;;;;;;16.40;99.90;;;;;;5052962;28;1271;-55
2021/11/18 12:35:27;;;;;;;;;;;16.50;99.90;;;;;;5073371;28;1898;-59
2021/11/18 12:37:57;;;;;;;;;;;16.50;99.90;;;;;;5074884;28;899;-56
2021/11/18 12:40:33;;;;;;;;;;;16.50;99.90;;;;;;5075659;28;1058;-56
2021/11/18 12:43:03;;;;;;;;;;;16.60;99.90;;;;;;5075141;28;853;-56
2021/11/18 12:45:41;;;;;;;;;;;16.70;99.90;;;;;;5074691;28;819;-56
2021/11/18 12:48:12;;;;;;;;;;;16.80;99.90;;;;;;5074831;28;1121;-56
2021/11/18 12:50:52;;;;;;;;;;;16.80;99.90;;;;;;5075526;28;957;-56
2021/11/18 12:53:23;;;;;;;;;;;16.80;99.90;;;;;;5075681;28;792;-55
2021/11/18 12:56:08;;;;;;;;;;;16.80;99.90;;;;;;5079232;28;1898;-55
2021/11/18 12:58:36;;;;;;;;;;;16.80;99.90;;;;;;5079942;28;850;-55
2021/11/18 13:01:25;;;;;;;;;;;16.70;99.90;;;;;;5079436;28;758;-55
2021/11/18 13:03:51;;;;;;;;;;;16.70;99.90;;;;;;5057999;28;1241;-55
2021/11/18 13:06:29;;;;;;;;;;;16.60;99.90;;;;;;5074789;28;782;-55
2021/11/18 13:08:56;;;;;;;;;;;16.70;99.90;;;;;;5079576;28;1608;-56
2021/11/18 13:11:25;;;;;;;;;;;16.60;99.90;;;;;;5079082;28;815;-56
2021/11/18 13:14:10;;;;;;;;;;;16.50;99.90;;;;;;5061930;28;854;-56
2021/11/18 13:16:51;;;;;;;;;;;16.50;99.90;;;;;;5078693;28;1909;-51
2021/11/18 13:19:17;;;;;;;;;;;16.40;99.90;;;;;;5079139;28;832;-51
2021/11/18 13:21:59;;;;;;;;;;;16.30;99.90;;;;;;5060954;28;1441;-51
2021/11/18 13:24:34;;;;;;;;;;;16.30;99.90;;;;;;5074717;28;1135;-51
2021/11/18 13:27:00;;;;;;;;;;;16.20;99.90;;;;;;5075826;28;1309;-50
2021/11/18 13:29:28;;;;;;;;;;;16.20;99.90;;;;;;5078977;28;746;-51
2021/11/18 13:32:00;;;;;;;;;;;16.20;99.90;;;;;;5076545;28;1031;-52
2021/11/18 13:34:28;;;;;;;;;;;16.20;99.90;;;;;;5075202;28;1004;-51
2021/11/18 13:36:57;;;;;;;;;;;16.10;99.90;;;;;;5060251;28;1973;-51
2021/11/18 13:39:30;;;;;;;;;;;15.80;99.90;;;;;;5078159;28;799;-51
2021/11/18 13:41:56;;;;;;;;;;;15.50;99.90;;;;;;5078886;28;811;-51
2021/11/18 13:44:27;;;;;;;;;;;15.50;99.90;;;;;;5077952;28;1162;-52
2021/11/18 13:47:03;;;;;;;;;;;15.60;99.90;;;;;;5076898;28;1206;-52
2021/11/18 13:49:30;;;;;;;;;;;15.80;99.90;;;;;;5077514;28;890;-52
2021/11/18 13:51:59;;;;;;;;;;;16.00;99.90;;;;;;5077961;28;797;-51
2021/11/18 13:54:31;;;;;;;;;;;16.10;99.90;;;;;;5060805;28;1442;-52
2021/11/18 13:57:06;;;;;;;;;;;16.20;99.90;;;;;;5077979;28;2044;-51
2021/11/18 13:59:44;;;;;;;;;;;16.20;99.90;;;;;;5078222;28;884;-51
2021/11/18 14:02:16;;;;;;;;;;;16.30;99.90;;;;;;5078017;28;1726;-52
2021/11/18 14:04:47;;;;;;;;;;;16.40;99.90;;;;;;5077286;28;968;-52
2021/11/18 14:07:15;;;;;;;;;;;16.40;99.90;;;;;;5078408;28;777;-52
2021/11/18 14:09:45;;;;;;;;;;;16.50;99.90;;;;;;5078447;28;1616;-52
2021/11/18 14:12:24;;;;;;;;;;;16.50;99.90;;;;;;5078590;28;851;-52
2021/11/18 14:14:53;;;;;;;;;;;16.50;99.90;;;;;;5077760;28;1897;-52
2021/11/18 14:17:19;;;;;;;;;;;16.60;99.90;;;;;;5077346;28;901;-52
2021/11/18 14:19:52;;;;;;;;;;;16.60;99.90;;;;;;5077996;28;906;-52
2021/11/18 14:22:23;;;;;;;;;;;16.60;99.90;;;;;;5078405;28;902;-52
2021/11/18 14:24:50;;;;;;;;;;;16.60;99.90;;;;;;5077832;28;1249;-52
2021/11/18 14:27:16;;;;;;;;;;;16.60;99.90;;;;;;5043431;28;954;-52
2021/11/18 14:29:42;;;;;;;;;;;16.60;99.90;;;;;;5077597;28;876;-52
2021/11/18 14:32:08;;;;;;;;;;;16.60;99.90;;;;;;5078189;28;777;-52
2021/11/18 14:34:34;;;;;;;;;;;16.50;99.90;;;;;;5077756;28;825;-52
2021/11/18 14:37:19;;;;;;;;;;;16.50;99.90;;;;;;5077657;28;1905;-52
2021/11/18 14:39:53;;;;;;;;;;;16.40;99.90;;;;;;5059199;28;1104;-52
2021/11/18 14:42:21;;;;;;;;;;;16.40;99.90;;;;;;5077745;28;758;-52
2021/11/18 14:45:08;;;;;;;;;;;16.40;99.90;;;;;;5076781;28;930;-52
2021/11/18 14:47:41;;;;;;;;;;;16.40;99.90;;;;;;5076932;28;1887;-52
2021/11/18 14:50:16;;;;;;;;;;;16.40;99.90;;;;;;5072242;28;857;-52